createdAt,value
2022-08-20T00:04:49.764Z,19.80
2022-08-20T00:10:51.456Z,20.07
2022-08-20T00:16:49.971Z,22.17
2022-08-20T00:22:44.000Z,18.40
2022-08-20T00:28:39.692Z,18.30
2022-08-20T00:34:36.535Z,17.83
2022-08-20T00:40:35.928Z,18.27
2022-08-20T00:46:31.133Z,18.20
2022-08-20T00:52:29.828Z,18.57
2022-08-20T00:58:23.859Z,16.93
2022-08-20T01:04:17.302Z,17.37
2022-08-20T01:10:19.463Z,16.47
2022-08-20T01:16:19.962Z,15.47
2022-08-20T01:22:36.579Z,16.40
2022-08-20T01:28:37.185Z,15.07
2022-08-20T01:34:31.038Z,14.80
2022-08-20T01:40:37.208Z,15.53
2022-08-20T01:46:38.919Z,15.20
2022-08-20T01:52:43.222Z,13.87
2022-08-20T01:58:39.407Z,14.67
2022-08-20T02:04:34.889Z,12.90
2022-08-20T02:10:31.811Z,14.77
2022-08-20T02:16:29.738Z,15.70
2022-08-20T02:22:28.447Z,13.03
2022-08-20T02:28:23.727Z,12.87
2022-08-20T02:34:22.822Z,12.70
2022-08-20T02:40:30.342Z,12.40
2022-08-20T02:46:24.860Z,13.37
2022-08-20T02:52:17.854Z,12.80
2022-08-20T02:58:12.979Z,14.20
2022-08-20T03:04:06.468Z,12.07
2022-08-20T03:10:00.141Z,13.10
2022-08-20T03:15:58.993Z,11.70
2022-08-20T03:21:52.377Z,12.97
2022-08-20T03:27:47.129Z,10.80
2022-08-20T03:33:53.050Z,10.77
2022-08-20T03:39:46.973Z,12.67
2022-08-20T03:45:42.627Z,9.90
2022-08-20T03:51:57.109Z,9.87
2022-08-20T03:57:53.453Z,11.13
2022-08-20T04:03:49.981Z,8.70
2022-08-20T04:09:46.649Z,8.73
2022-08-20T04:15:40.673Z,8.83
2022-08-20T04:21:35.918Z,7.47
2022-08-20T04:27:32.947Z,9.60
2022-08-20T04:33:34.123Z,8.23
2022-08-20T04:39:28.674Z,7.63
2022-08-20T04:45:23.163Z,7.93
2022-08-20T04:51:16.139Z,6.73
2022-08-20T04:57:09.609Z,8.47
2022-08-20T05:03:04.477Z,9.33
2022-08-20T05:08:59.761Z,6.90
2022-08-20T05:14:52.793Z,8.40
2022-08-20T05:20:48.559Z,9.00
2022-08-20T05:26:41.819Z,8.10
2022-08-20T05:32:35.959Z,8.80
2022-08-20T05:38:39.354Z,8.77
2022-08-20T05:44:32.495Z,8.63
2022-08-20T05:50:26.268Z,10.07
2022-08-20T05:56:26.650Z,11.43
2022-08-20T06:02:38.327Z,12.33
2022-08-20T06:08:32.509Z,11.87
2022-08-20T06:14:27.241Z,11.87
2022-08-20T06:20:20.215Z,14.63
2022-08-20T06:26:13.951Z,12.00
2022-08-20T06:32:09.094Z,13.40
2022-08-20T06:38:02.659Z,13.23
2022-08-20T06:43:56.781Z,15.23
2022-08-20T06:49:51.520Z,20.10
2022-08-20T06:55:48.589Z,14.97
2022-08-20T07:01:41.952Z,10.70
2022-08-20T07:07:37.173Z,15.23
2022-08-20T07:13:30.892Z,10.60
2022-08-20T07:19:24.813Z,10.43
2022-08-20T07:25:21.705Z,14.13
2022-08-20T07:31:32.841Z,11.20
2022-08-20T07:37:28.612Z,9.13
2022-08-20T07:43:24.559Z,8.37
2022-08-20T07:49:17.987Z,8.20
2022-08-20T07:55:15.333Z,6.13
2022-08-20T08:01:11.156Z,9.93
2022-08-20T08:07:04.876Z,9.27
2022-08-20T08:13:02.287Z,7.50
2022-08-20T08:18:58.796Z,6.87
2022-08-20T08:24:56.771Z,7.53
2022-08-20T08:30:51.103Z,5.07
2022-08-20T08:36:45.841Z,4.40
2022-08-20T08:42:43.976Z,5.57
2022-08-20T08:48:43.541Z,4.20
2022-08-20T08:54:41.219Z,3.97
2022-08-20T09:00:37.441Z,4.33
2022-08-20T09:06:50.463Z,3.03
2022-08-20T09:12:47.857Z,8.00
2022-08-20T09:18:41.472Z,2.93
2022-08-20T09:24:34.788Z,4.30
2022-08-20T09:30:29.794Z,3.67
2022-08-20T09:36:32.167Z,8.70
2022-08-20T09:42:29.626Z,6.10
2022-08-20T09:48:31.942Z,4.23
2022-08-20T09:54:30.291Z,5.83
2022-08-20T10:00:23.986Z,2.77
2022-08-20T10:06:20.727Z,4.33
2022-08-20T10:12:14.433Z,4.70
2022-08-20T10:18:07.922Z,6.27
2022-08-20T10:24:02.813Z,5.13
2022-08-20T10:29:56.195Z,6.63
2022-08-20T10:35:49.240Z,8.63
2022-08-20T10:41:45.338Z,4.50
2022-08-20T10:47:38.738Z,5.57
2022-08-20T10:53:32.390Z,5.07
2022-08-20T10:59:27.087Z,3.83
2022-08-20T11:05:20.572Z,5.93
2022-08-20T11:11:13.633Z,5.60
2022-08-20T11:17:08.812Z,7.23
2022-08-20T11:23:02.575Z,3.90
2022-08-20T11:28:55.924Z,5.83
2022-08-20T11:34:50.911Z,9.57
2022-08-20T11:40:43.929Z,6.27
2022-08-20T11:46:36.909Z,5.93
2022-08-20T11:52:31.649Z,9.07
2022-08-20T11:58:25.043Z,3.53
2022-08-20T12:04:18.402Z,6.03
2022-08-20T12:10:14.177Z,3.80
2022-08-20T12:16:07.908Z,5.60
2022-08-20T12:22:00.842Z,3.70
2022-08-20T12:28:16.012Z,6.17
2022-08-20T12:34:09.465Z,5.97
2022-08-20T12:40:06.482Z,6.50
2022-08-20T12:46:00.904Z,5.30
2022-08-20T12:51:54.355Z,5.27
2022-08-20T12:57:49.781Z,4.03
2022-08-20T13:03:45.080Z,5.30
2022-08-20T13:09:40.462Z,7.20
2022-08-20T13:15:34.109Z,4.70
2022-08-20T13:21:28.612Z,4.30
2022-08-20T13:27:23.089Z,3.83
2022-08-20T13:33:17.010Z,4.50
2022-08-20T13:39:11.725Z,5.00
2022-08-20T13:45:06.248Z,4.77
2022-08-20T13:50:59.310Z,3.70
2022-08-20T13:56:53.722Z,5.60
2022-08-20T14:02:47.445Z,2.53
2022-08-20T14:08:40.774Z,5.10
2022-08-20T14:14:35.521Z,5.13
2022-08-20T14:20:32.093Z,2.77
2022-08-20T14:26:25.342Z,5.93
2022-08-20T14:32:21.140Z,6.20
2022-08-20T14:38:14.488Z,3.90
2022-08-20T14:44:07.425Z,2.83
2022-08-20T14:50:05.204Z,3.67
2022-08-20T14:55:58.605Z,3.07
2022-08-20T15:01:52.111Z,3.07
2022-08-20T15:07:48.998Z,2.60
2022-08-20T15:13:45.127Z,3.20
2022-08-20T15:19:38.542Z,2.40
2022-08-20T15:25:36.865Z,2.77
2022-08-20T15:31:31.129Z,1.80
2022-08-20T15:37:26.348Z,2.60
2022-08-20T15:43:21.024Z,1.97
2022-08-20T15:49:14.444Z,2.87
2022-08-20T15:55:09.221Z,4.20
2022-08-20T16:01:24.378Z,2.50
2022-08-20T16:07:22.311Z,3.73
2022-08-20T16:13:30.180Z,1.77
2022-08-20T16:19:30.382Z,1.90
2022-08-20T16:25:29.054Z,2.00
2022-08-20T16:31:27.522Z,5.10
2022-08-20T16:37:31.364Z,2.80
2022-08-20T16:43:30.348Z,3.23
2022-08-20T16:49:27.557Z,2.43
2022-08-20T16:55:25.064Z,3.43
2022-08-20T17:01:26.404Z,1.20
2022-08-20T17:07:29.827Z,4.07
2022-08-20T17:13:32.091Z,4.10
2022-08-20T17:19:29.898Z,3.63
2022-08-20T17:25:31.678Z,4.10
2022-08-20T17:31:38.902Z,1.70
2022-08-20T17:37:35.788Z,3.67
2022-08-20T17:43:35.080Z,2.50
2022-08-20T17:49:44.554Z,5.07
2022-08-20T17:55:58.704Z,3.00
2022-08-20T18:01:54.593Z,3.23
2022-08-20T18:08:06.640Z,1.67
2022-08-20T18:14:19.013Z,3.10
2022-08-20T18:20:32.114Z,2.30
2022-08-20T18:26:34.105Z,1.70
2022-08-20T18:32:32.608Z,3.30
2022-08-20T18:38:32.347Z,2.43
2022-08-20T18:44:37.272Z,2.90
2022-08-20T18:50:34.811Z,2.50
2022-08-20T18:56:35.670Z,2.80
2022-08-20T19:02:34.149Z,4.27
2022-08-20T19:08:42.490Z,4.00
2022-08-20T19:15:01.451Z,5.63
2022-08-20T19:21:00.427Z,4.00
2022-08-20T19:26:57.791Z,2.80
2022-08-20T19:32:53.464Z,5.03
2022-08-20T19:38:51.253Z,3.10
2022-08-20T19:44:47.749Z,4.80
2022-08-20T19:50:46.903Z,4.17
2022-08-20T19:56:42.526Z,4.67
2022-08-20T20:02:36.574Z,2.43
2022-08-20T20:08:38.583Z,4.17
2022-08-20T20:14:35.177Z,3.60
2022-08-20T20:20:31.911Z,3.57
2022-08-20T20:26:26.014Z,3.43
2022-08-20T20:32:25.552Z,3.00
2022-08-20T20:38:27.957Z,2.90
2022-08-20T20:44:23.288Z,3.10
2022-08-20T20:50:29.863Z,6.37
2022-08-20T20:56:32.150Z,2.57
2022-08-20T21:02:25.504Z,4.40
2022-08-20T21:08:20.771Z,3.57
2022-08-20T21:14:13.878Z,3.73
2022-08-20T21:20:09.267Z,3.33
2022-08-20T21:26:05.028Z,4.00
2022-08-20T21:31:59.345Z,3.67
2022-08-20T21:37:53.137Z,4.90
2022-08-20T21:43:49.533Z,4.50
2022-08-20T21:49:42.944Z,4.63
2022-08-20T21:55:39.533Z,3.50
2022-08-20T22:01:34.241Z,3.77
2022-08-20T22:07:27.924Z,6.77
2022-08-20T22:13:21.958Z,2.73
2022-08-20T22:19:16.687Z,3.77
2022-08-20T22:25:12.796Z,4.20
2022-08-20T22:31:07.741Z,4.60
2022-08-20T22:37:04.243Z,3.07
2022-08-20T22:42:57.463Z,7.50
2022-08-20T22:48:50.957Z,3.13
2022-08-20T22:54:46.649Z,4.00
2022-08-20T23:00:40.571Z,3.70
2022-08-20T23:06:34.113Z,5.90
2022-08-20T23:12:28.842Z,4.97
2022-08-20T23:18:22.353Z,3.00
2022-08-20T23:24:15.446Z,6.03
2022-08-20T23:30:11.365Z,2.90
2022-08-20T23:36:06.746Z,7.23
2022-08-20T23:42:00.470Z,3.97
2022-08-20T23:47:55.184Z,4.30
2022-08-20T23:53:48.576Z,5.67
2022-08-20T23:59:42.272Z,4.10
